• Join FlightAware (Why Join?)
  • Login
  • US Flag 
12:07PM EDT


 

Airport Tracker/Info


-or-


 

Live Flight TrackerFlight Track Log ✈ SWA1521 ✈ 26-Apr-2013 ✈ KSEA - KSMF

Flight Track Log - Related Links

Times and Time Zones

All times are in EDT time to prevent confusion due to time zone crossing. See the SWA1521 flight status page for this flight to view local times or setup timezone preferences in your user account.

Time Position Orientation Groundspeed Altitude Reporting Facility
EDT Latitude Longitude Course Direction KTS MPH feet Rate Location/Type
09:10PM 47.4344 -122.3075 180° South 165 190 1,100  Level Seattle Center
09:11PM 47.4153 -122.3075 180° South 166 191 2,000 1,920 Climbing Seattle Center
09:11PM 47.3931 -122.3106 185° South 194 223 2,700 2,340 Climbing Seattle Center
09:12PM 47.3547 -122.3089 178° South 220 253 4,400 3,060 Climbing Seattle Center
09:13PM 47.2806 -122.3092 180° South 264 304 8,200 3,540 Climbing Seattle Center
09:14PM 47.1850 -122.2886 172° South 315 362 11,600 3,240 Climbing Seattle Center
09:15PM 47.0956 -122.2383 159° South 348 400 14,800 3,060 Climbing Seattle Center
09:16PM 46.9997 -122.1878 160° South 369 425 17,900 2,640 Climbing Seattle Center
09:17PM 46.8983 -122.1356 161° South 386 444 20,200 2,280 Climbing Seattle Center
09:18PM 46.7903 -122.0906 164° South 406 467 22,600 2,280 Climbing Seattle Center
09:19PM 46.6781 -122.0997 183° South 407 468 24,900 1,980 Climbing Seattle Center
09:20PM 46.5603 -122.1103 184° South 423 487 26,700 1,860 Climbing Seattle Center
09:21PM 46.4400 -122.1156 182° South 433 498 28,700 2,040 Climbing Seattle Center
09:22PM 46.2906 -122.1131 179° South 450 518 30,900 2,160 Climbing Seattle Center
09:23PM 46.1625 -122.1036 177° South 455 524 33,100 1,860 Climbing Seattle Center
09:24PM 46.0414 -122.0978 178° South 440 506 34,700 1,380 Climbing Seattle Center
09:25PM 45.9153 -122.0842 176° South 448 516 36,000 1,140 Climbing Seattle Center
09:26PM 45.7836 -122.0631 174° South 470 541 37,100 1,200 Climbing Seattle Center
09:27PM 45.6553 -122.0522 177° South 463 533 38,500 840 Climbing Seattle Center
09:28PM 45.5294 -122.0408 176° South 455 524 38,900 240 Climbing Seattle Center
09:29PM 45.4017 -122.0275 176° South 460 529 39,000  Climbing Seattle Center
09:30PM 45.2750 -122.0158 176° South 455 524 39,000  Level Seattle Center
09:31PM 45.1486 -122.0047 176° South 455 524 39,000  Level Seattle Center
09:32PM 45.0194 -121.9914 176° South 462 532 39,000  Level Seattle Center
09:33PM 44.8925 -121.9775 176° South 459 528 39,000  Level Seattle Center
09:34PM 44.7694 -121.9647 176° South 454 522 39,000  Level Seattle Center
09:35PM 44.6425 -121.9536 176° South 455 524 39,000  Level Seattle Center
09:36PM 44.5167 -121.9417 176° South 452 520 39,000  Level Seattle Center
09:37PM 44.3656 -121.9272 176° South 452 520 39,000  Level Seattle Center
09:38PM 44.2383 -121.9164 177° South 456 525 39,000  Level Seattle Center
09:39PM 44.1144 -121.9058 176° South 447 514 39,000  Level Seattle Center
09:40PM 43.9892 -121.8933 176° South 448 516 39,000  Level Seattle Center
09:41PM 43.8653 -121.8825 176° South 446 513 39,000  Level Seattle Center
09:42PM 43.7522 -121.8728 176° South 448 516 39,000  Level Seattle Center
09:43PM 43.6267 -121.8603 176° South 451 519 39,000  Level Seattle Center
09:44PM 43.4986 -121.8486 176° South 459 528 39,000  Level Seattle Center
09:45PM 43.3722 -121.8364 176° South 457 526 39,000  Level Seattle Center
09:46PM 43.2464 -121.8253 176° South 452 520 39,000  Level Seattle Center
09:47PM 43.1217 -121.8136 176° South 450 518 39,000  Level Seattle Center
09:48PM 42.9975 -121.8050 177° South 448 516 39,000  Level Seattle Center
09:49PM 42.8475 -121.7922 176° South 450 518 39,000  Level Seattle Center
09:50PM 42.7208 -121.7800 176° South 452 520 39,000  Level Seattle Center
09:51PM 42.5950 -121.7689 176° South 453 521 39,000  Level Seattle Center
09:52PM 42.4689 -121.7569 176° South 453 521 39,000  Level Seattle Center
09:53PM 42.3408 -121.7447 176° South 456 525 39,000  Level Seattle Center
09:54PM 42.2136 -121.7322 176° South 454 522 39,000  Level Seattle Center
09:55PM 42.0839 -121.7267 178° South 457 526 39,000  Level Seattle Center
09:56PM 41.9558 -121.7275 180° South 451 519 39,000  Level Seattle Center
09:58PM 41.8281 -121.7264 180° South 451 519 39,000  Level Seattle Center
09:59PM 41.7014 -121.7219 178° South 452 520 39,000  Level Seattle Center
10:00PM 41.5753 -121.7144 177° South 453 521 39,000  Level Seattle Center
10:01PM 41.4497 -121.7092 178° South 451 519 39,000  Level Seattle Center
10:02PM 41.3236 -121.7036 178° South 451 519 39,000  Level Seattle Center
10:03PM 41.1994 -121.6983 178° South 447 514 39,000  Level Seattle Center
10:04PM 41.0750 -121.6917 178° South 445 512 39,000 -360 Level Seattle Center
10:05PM 40.9519 -121.6864 178° South 443 510 38,300 -840 Descending Seattle Center
10:06PM 40.8150 -121.6772 177° South 447 514 37,300 -1,380 Descending Seattle Center
10:07PM 40.6911 -121.6731 179° South 446 513 35,600 -2,280 Descending Seattle Center
10:08PM 40.5642 -121.6681 178° South 451 519 32,700 -2,640 Descending Seattle Center
10:09PM 40.4383 -121.6619 178° South 451 519 30,300 -2,340 Descending Seattle Center
10:10PM 40.3172 -121.6556 178° South 437 503 28,000 -2,220 Descending Seattle Center
10:11PM 40.1994 -121.6503 178° South 424 488 25,900 -2,160 Descending Seattle Center
10:12PM 40.0842 -121.6450 178° South 414 476 23,700 -2,100 Descending Seattle Center
10:12PM 40.0625 -121.6428 176° South 413 475 23,300 -1,920 Descending Oakland Center
10:13PM 39.9522 -121.6392 179° South 401 461 21,300 -1,980 Descending Oakland Center
10:14PM 39.8442 -121.6339 178° South 392 451 19,300 -1,920 Descending Oakland Center
10:15PM 39.7394 -121.6306 179° South 382 440 17,500 -2,160 Descending Oakland Center
10:16PM 39.6172 -121.6242 178° South 370 426 15,000 -2,220 Descending Oakland Center
10:17PM 39.5175 -121.6206 178° South 362 417 13,000 -1,980 Descending Oakland Center
10:18PM 39.4206 -121.6158 178° South 350 403 11,000 -1,560 Descending Oakland Center
10:19PM 39.3286 -121.6131 179° South 335 386 9,900 -1,140 Descending Oakland Center
10:20PM 39.2475 -121.6094 178° South 302 348 8,700 -1,680 Descending Oakland Center
10:21PM 39.1686 -121.6047 177° South 288 331 6,600 -1,800 Descending Oakland Center
10:22PM 39.0872 -121.6019 178° South 290 334 5,100 -1,380 Descending Oakland Center
10:23PM 39.0103 -121.5969 177° South 284 327 3,800 -1,140 Descending Oakland Center
10:24PM 38.9325 -121.5981 181° South 281 323 2,800 -780 Descending Oakland Center
10:25PM 38.8667 -121.6000 181° South 234 269 2,400 -540 Descending Northern Cal TRACON
10:26PM 38.8000 -121.6000 180° South 199 229 1,800 -720 Descending Northern Cal TRACON
10:27PM 38.7667 -121.6000 180° South 148 170 1,000 -720 Descending Northern Cal TRACON
10:28PM 38.7167 -121.6000 180° South 128 147 300 -660 Descending Northern Cal TRACON
10:30PM 38.6954 -121.5908 180° South  Level Estimated
10:37PM 38.6954 -121.5908 180° South  Level Estimated
10:38PM 38.6954 -121.5908 180° South  Level Estimated